sensor_id;sensor_type;location;lat;lon;timestamp;P1;durP1;ratioP1;P2;durP2;ratioP2
58250;SDS011;51449;51.676;5.812;2023-09-08T00:01:33;12.90;;;11.57;;
58250;SDS011;51449;51.676;5.812;2023-09-08T00:03:55;12.65;;;11.35;;
58250;SDS011;51449;51.676;5.812;2023-09-08T00:06:17;13.13;;;11.82;;
58250;SDS011;51449;51.676;5.812;2023-09-08T00:08:38;13.15;;;11.85;;
58250;SDS011;51449;51.676;5.812;2023-09-08T00:11:01;12.98;;;11.70;;
58250;SDS011;51449;51.676;5.812;2023-09-08T00:13:23;12.60;;;11.32;;
58250;SDS011;51449;51.676;5.812;2023-09-08T00:15:45;14.23;;;12.73;;
58250;SDS011;51449;51.676;5.812;2023-09-08T00:18:06;13.15;;;11.85;;
58250;SDS011;51449;51.676;5.812;2023-09-08T00:20:28;12.63;;;11.43;;
58250;SDS011;51449;51.676;5.812;2023-09-08T00:22:50;14.02;;;11.52;;
58250;SDS011;51449;51.676;5.812;2023-09-08T00:25:12;12.52;;;11.32;;
58250;SDS011;51449;51.676;5.812;2023-09-08T00:27:34;13.70;;;12.30;;
58250;SDS011;51449;51.676;5.812;2023-09-08T00:29:55;13.63;;;12.23;;
58250;SDS011;51449;51.676;5.812;2023-09-08T00:32:17;13.93;;;12.48;;
58250;SDS011;51449;51.676;5.812;2023-09-08T00:34:40;11.93;;;10.90;;
58250;SDS011;51449;51.676;5.812;2023-09-08T00:37:02;12.77;;;11.52;;
58250;SDS011;51449;51.676;5.812;2023-09-08T00:39:28;15.05;;;12.25;;
58250;SDS011;51449;51.676;5.812;2023-09-08T00:41:50;14.52;;;11.73;;
58250;SDS011;51449;51.676;5.812;2023-09-08T00:44:12;12.93;;;11.48;;
58250;SDS011;51449;51.676;5.812;2023-09-08T00:46:34;12.80;;;11.60;;
58250;SDS011;51449;51.676;5.812;2023-09-08T00:48:56;13.18;;;11.88;;
58250;SDS011;51449;51.676;5.812;2023-09-08T00:51:18;12.88;;;11.55;;
58250;SDS011;51449;51.676;5.812;2023-09-08T00:53:42;12.82;;;11.48;;
58250;SDS011;51449;51.676;5.812;2023-09-08T00:56:04;14.23;;;12.80;;
58250;SDS011;51449;51.676;5.812;2023-09-08T00:58:28;14.43;;;12.82;;
58250;SDS011;51449;51.676;5.812;2023-09-08T01:00:50;16.38;;;12.95;;
58250;SDS011;51449;51.676;5.812;2023-09-08T01:03:12;14.20;;;12.80;;
58250;SDS011;51449;51.676;5.812;2023-09-08T01:05:35;13.95;;;12.55;;
58250;SDS011;51449;51.676;5.812;2023-09-08T01:07:57;14.52;;;11.85;;
58250;SDS011;51449;51.676;5.812;2023-09-08T01:10:21;13.38;;;11.98;;
58250;SDS011;51449;51.676;5.812;2023-09-08T01:12:44;13.35;;;11.95;;
58250;SDS011;51449;51.676;5.812;2023-09-08T01:15:06;14.27;;;12.98;;
58250;SDS011;51449;51.676;5.812;2023-09-08T01:17:29;14.63;;;12.52;;
58250;SDS011;51449;51.676;5.812;2023-09-08T01:19:52;14.13;;;12.68;;
58250;SDS011;51449;51.676;5.812;2023-09-08T01:27:41;13.63;;;12.27;;
58250;SDS011;51449;51.676;5.812;2023-09-08T01:30:08;14.63;;;13.00;;
58250;SDS011;51449;51.676;5.812;2023-09-08T01:32:31;13.93;;;12.43;;
58250;SDS011;51449;51.676;5.812;2023-09-08T01:34:56;12.95;;;11.65;;
58250;SDS011;51449;51.676;5.812;2023-09-08T01:37:22;14.00;;;12.27;;
58250;SDS011;51449;51.676;5.812;2023-09-08T01:39:45;13.43;;;12.07;;
58250;SDS011;51449;51.676;5.812;2023-09-08T01:42:07;13.80;;;12.40;;
58250;SDS011;51449;51.676;5.812;2023-09-08T01:44:29;13.00;;;11.80;;
58250;SDS011;51449;51.676;5.812;2023-09-08T01:46:51;14.02;;;12.73;;
58250;SDS011;51449;51.676;5.812;2023-09-08T01:49:18;15.25;;;13.75;;
58250;SDS011;51449;51.676;5.812;2023-09-08T01:51:39;14.93;;;13.43;;
58250;SDS011;51449;51.676;5.812;2023-09-08T01:54:01;15.35;;;13.45;;
58250;SDS011;51449;51.676;5.812;2023-09-08T01:56:23;15.68;;;13.95;;
58250;SDS011;51449;51.676;5.812;2023-09-08T01:58:45;15.95;;;14.27;;
58250;SDS011;51449;51.676;5.812;2023-09-08T02:01:07;14.35;;;12.77;;
58250;SDS011;51449;51.676;5.812;2023-09-08T02:03:29;16.15;;;14.50;;
58250;SDS011;51449;51.676;5.812;2023-09-08T02:05:51;15.75;;;14.07;;
58250;SDS011;51449;51.676;5.812;2023-09-08T02:08:13;16.70;;;13.77;;
58250;SDS011;51449;51.676;5.812;2023-09-08T02:10:38;14.65;;;13.20;;
58250;SDS011;51449;51.676;5.812;2023-09-08T02:13:02;15.50;;;13.88;;
58250;SDS011;51449;51.676;5.812;2023-09-08T02:15:24;15.60;;;14.00;;
58250;SDS011;51449;51.676;5.812;2023-09-08T02:17:46;15.43;;;13.13;;
58250;SDS011;51449;51.676;5.812;2023-09-08T02:20:15;15.52;;;13.85;;
58250;SDS011;51449;51.676;5.812;2023-09-08T02:22:40;15.67;;;13.97;;
58250;SDS011;51449;51.676;5.812;2023-09-08T02:25:02;17.92;;;14.27;;
58250;SDS011;51449;51.676;5.812;2023-09-08T02:27:24;16.23;;;14.32;;
58250;SDS011;51449;51.676;5.812;2023-09-08T02:29:45;18.77;;;13.53;;
58250;SDS011;51449;51.676;5.812;2023-09-08T02:32:07;16.47;;;14.37;;
58250;SDS011;51449;51.676;5.812;2023-09-08T02:34:29;14.93;;;13.33;;
58250;SDS011;51449;51.676;5.812;2023-09-08T02:36:51;15.57;;;14.02;;
58250;SDS011;51449;51.676;5.812;2023-09-08T02:39:17;15.68;;;13.18;;
58250;SDS011;51449;51.676;5.812;2023-09-08T02:41:39;15.02;;;13.52;;
58250;SDS011;51449;51.676;5.812;2023-09-08T02:44:01;16.45;;;14.65;;
58250;SDS011;51449;51.676;5.812;2023-09-08T02:46:23;14.48;;;12.98;;
58250;SDS011;51449;51.676;5.812;2023-09-08T02:48:46;15.60;;;14.00;;
58250;SDS011;51449;51.676;5.812;2023-09-08T02:51:08;17.63;;;15.70;;
58250;SDS011;51449;51.676;5.812;2023-09-08T02:53:29;17.40;;;14.73;;
58250;SDS011;51449;51.676;5.812;2023-09-08T02:55:51;15.87;;;14.20;;
58250;SDS011;51449;51.676;5.812;2023-09-08T02:58:14;14.73;;;13.23;;
58250;SDS011;51449;51.676;5.812;2023-09-08T03:00:35;14.40;;;12.90;;
58250;SDS011;51449;51.676;5.812;2023-09-08T03:02:57;14.30;;;12.67;;
58250;SDS011;51449;51.676;5.812;2023-09-08T03:05:20;12.80;;;11.50;;
58250;SDS011;51449;51.676;5.812;2023-09-08T03:07:42;15.67;;;12.97;;
58250;SDS011;51449;51.676;5.812;2023-09-08T03:10:03;14.10;;;12.67;;
58250;SDS011;51449;51.676;5.812;2023-09-08T03:12:27;14.13;;;12.80;;
58250;SDS011;51449;51.676;5.812;2023-09-08T03:14:48;15.23;;;13.67;;
58250;SDS011;51449;51.676;5.812;2023-09-08T03:17:11;15.97;;;14.30;;
58250;SDS011;51449;51.676;5.812;2023-09-08T03:19:34;15.87;;;14.13;;
58250;SDS011;51449;51.676;5.812;2023-09-08T03:21:56;16.20;;;14.50;;
58250;SDS011;51449;51.676;5.812;2023-09-08T03:24:17;15.23;;;13.63;;
58250;SDS011;51449;51.676;5.812;2023-09-08T03:26:39;14.47;;;12.93;;
58250;SDS011;51449;51.676;5.812;2023-09-08T03:29:01;13.67;;;12.30;;
58250;SDS011;51449;51.676;5.812;2023-09-08T03:31:25;14.57;;;13.07;;
58250;SDS011;51449;51.676;5.812;2023-09-08T03:33:48;14.77;;;13.23;;
58250;SDS011;51449;51.676;5.812;2023-09-08T03:36:10;14.43;;;12.97;;
58250;SDS011;51449;51.676;5.812;2023-09-08T03:38:32;14.70;;;13.20;;
58250;SDS011;51449;51.676;5.812;2023-09-08T03:40:54;17.03;;;13.67;;
58250;SDS011;51449;51.676;5.812;2023-09-08T03:43:17;15.03;;;13.43;;
58250;SDS011;51449;51.676;5.812;2023-09-08T03:45:39;16.27;;;14.13;;
58250;SDS011;51449;51.676;5.812;2023-09-08T03:48:01;15.40;;;13.77;;
58250;SDS011;51449;51.676;5.812;2023-09-08T03:50:23;15.67;;;14.00;;
58250;SDS011;51449;51.676;5.812;2023-09-08T03:52:45;16.70;;;14.97;;
58250;SDS011;51449;51.676;5.812;2023-09-08T03:55:07;16.17;;;14.37;;
58250;SDS011;51449;51.676;5.812;2023-09-08T03:57:29;16.97;;;14.17;;
58250;SDS011;51449;51.676;5.812;2023-09-08T03:59:51;15.63;;;13.07;;
58250;SDS011;51449;51.676;5.812;2023-09-08T04:02:13;14.20;;;12.80;;
58250;SDS011;51449;51.676;5.812;2023-09-08T04:04:34;18.83;;;14.73;;
58250;SDS011;51449;51.676;5.812;2023-09-08T04:06:56;16.23;;;14.53;;
58250;SDS011;51449;51.676;5.812;2023-09-08T04:09:18;14.60;;;13.10;;
58250;SDS011;51449;51.676;5.812;2023-09-08T04:11:40;15.33;;;13.73;;
58250;SDS011;51449;51.676;5.812;2023-09-08T04:14:03;15.90;;;13.43;;
58250;SDS011;51449;51.676;5.812;2023-09-08T04:16:25;17.27;;;15.27;;
58250;SDS011;51449;51.676;5.812;2023-09-08T04:18:47;16.33;;;14.60;;
58250;SDS011;51449;51.676;5.812;2023-09-08T04:21:09;17.97;;;14.67;;
58250;SDS011;51449;51.676;5.812;2023-09-08T04:23:31;15.30;;;13.73;;
58250;SDS011;51449;51.676;5.812;2023-09-08T04:25:53;14.40;;;12.90;;
58250;SDS011;51449;51.676;5.812;2023-09-08T04:28:15;14.30;;;12.90;;
58250;SDS011;51449;51.676;5.812;2023-09-08T04:30:36;14.80;;;13.30;;
58250;SDS011;51449;51.676;5.812;2023-09-08T04:32:58;17.77;;;13.53;;
58250;SDS011;51449;51.676;5.812;2023-09-08T04:35:20;15.33;;;13.57;;
58250;SDS011;51449;51.676;5.812;2023-09-08T04:37:42;17.27;;;14.00;;
58250;SDS011;51449;51.676;5.812;2023-09-08T04:40:04;16.37;;;14.20;;
58250;SDS011;51449;51.676;5.812;2023-09-08T04:42:29;14.67;;;13.17;;
58250;SDS011;51449;51.676;5.812;2023-09-08T04:44:53;15.07;;;13.02;;
58250;SDS011;51449;51.676;5.812;2023-09-08T04:47:16;14.80;;;13.20;;
58250;SDS011;51449;51.676;5.812;2023-09-08T04:49:38;15.07;;;13.13;;
58250;SDS011;51449;51.676;5.812;2023-09-08T04:52:00;14.30;;;12.77;;
58250;SDS011;51449;51.676;5.812;2023-09-08T04:54:23;14.03;;;12.53;;
58250;SDS011;51449;51.676;5.812;2023-09-08T04:56:49;16.03;;;12.43;;
58250;SDS011;51449;51.676;5.812;2023-09-08T04:59:12;14.73;;;12.63;;
58250;SDS011;51449;51.676;5.812;2023-09-08T05:01:34;15.53;;;13.37;;
58250;SDS011;51449;51.676;5.812;2023-09-08T05:04:00;14.20;;;12.70;;
58250;SDS011;51449;51.676;5.812;2023-09-08T05:06:22;13.43;;;11.90;;
58250;SDS011;51449;51.676;5.812;2023-09-08T05:08:44;14.00;;;12.50;;
58250;SDS011;51449;51.676;5.812;2023-09-08T05:11:06;13.30;;;11.80;;
58250;SDS011;51449;51.676;5.812;2023-09-08T05:13:28;14.20;;;12.70;;
58250;SDS011;51449;51.676;5.812;2023-09-08T05:15:54;15.60;;;13.03;;
58250;SDS011;51449;51.676;5.812;2023-09-08T05:18:24;17.00;;;12.97;;
58250;SDS011;51449;51.676;5.812;2023-09-08T05:20:47;15.03;;;13.40;;
58250;SDS011;51449;51.676;5.812;2023-09-08T05:23:09;14.20;;;12.70;;
58250;SDS011;51449;51.676;5.812;2023-09-08T05:25:31;14.43;;;12.93;;
58250;SDS011;51449;51.676;5.812;2023-09-08T05:27:52;13.97;;;12.47;;
58250;SDS011;51449;51.676;5.812;2023-09-08T05:30:15;13.77;;;11.70;;
58250;SDS011;51449;51.676;5.812;2023-09-08T05:32:36;15.97;;;12.80;;
58250;SDS011;51449;51.676;5.812;2023-09-08T05:34:58;14.40;;;12.50;;
58250;SDS011;51449;51.676;5.812;2023-09-08T05:37:21;14.37;;;12.23;;
58250;SDS011;51449;51.676;5.812;2023-09-08T05:39:43;13.37;;;12.07;;
58250;SDS011;51449;51.676;5.812;2023-09-08T05:42:05;13.70;;;12.23;;
58250;SDS011;51449;51.676;5.812;2023-09-08T05:44:28;14.57;;;12.83;;
58250;SDS011;51449;51.676;5.812;2023-09-08T05:46:50;14.27;;;11.77;;
58250;SDS011;51449;51.676;5.812;2023-09-08T05:49:12;13.63;;;12.20;;
58250;SDS011;51449;51.676;5.812;2023-09-08T05:51:36;14.93;;;13.33;;
58250;SDS011;51449;51.676;5.812;2023-09-08T05:53:59;14.10;;;12.60;;
58250;SDS011;51449;51.676;5.812;2023-09-08T05:56:24;14.27;;;12.70;;
58250;SDS011;51449;51.676;5.812;2023-09-08T05:58:51;17.53;;;12.73;;
58250;SDS011;51449;51.676;5.812;2023-09-08T06:01:14;14.57;;;12.73;;
58250;SDS011;51449;51.676;5.812;2023-09-08T06:03:37;15.63;;;13.25;;
58250;SDS011;51449;51.676;5.812;2023-09-08T06:05:59;15.27;;;12.50;;
58250;SDS011;51449;51.676;5.812;2023-09-08T06:08:21;14.03;;;12.13;;
58250;SDS011;51449;51.676;5.812;2023-09-08T06:10:43;13.45;;;12.15;;
58250;SDS011;51449;51.676;5.812;2023-09-08T06:13:05;14.52;;;12.00;;
58250;SDS011;51449;51.676;5.812;2023-09-08T06:15:26;14.52;;;12.90;;
58250;SDS011;51449;51.676;5.812;2023-09-08T06:17:48;14.93;;;12.52;;
58250;SDS011;51449;51.676;5.812;2023-09-08T06:20:11;14.40;;;12.77;;
58250;SDS011;51449;51.676;5.812;2023-09-08T06:22:34;15.60;;;13.05;;
58250;SDS011;51449;51.676;5.812;2023-09-08T06:24:57;15.63;;;14.05;;
58250;SDS011;51449;51.676;5.812;2023-09-08T06:27:18;14.65;;;13.10;;
58250;SDS011;51449;51.676;5.812;2023-09-08T06:29:40;15.52;;;13.18;;
58250;SDS011;51449;51.676;5.812;2023-09-08T06:32:06;15.00;;;13.52;;
58250;SDS011;51449;51.676;5.812;2023-09-08T06:34:28;17.08;;;13.80;;
58250;SDS011;51449;51.676;5.812;2023-09-08T06:36:50;15.68;;;14.07;;
58250;SDS011;51449;51.676;5.812;2023-09-08T06:39:12;16.20;;;13.60;;
58250;SDS011;51449;51.676;5.812;2023-09-08T06:41:34;15.10;;;13.23;;
58250;SDS011;51449;51.676;5.812;2023-09-08T06:43:57;14.88;;;13.38;;
58250;SDS011;51449;51.676;5.812;2023-09-08T06:46:21;16.15;;;14.65;;
58250;SDS011;51449;51.676;5.812;2023-09-08T06:48:43;16.02;;;14.23;;
58250;SDS011;51449;51.676;5.812;2023-09-08T06:51:06;15.52;;;13.90;;
58250;SDS011;51449;51.676;5.812;2023-09-08T06:53:28;16.15;;;14.38;;
58250;SDS011;51449;51.676;5.812;2023-09-08T06:55:52;15.65;;;14.15;;
58250;SDS011;51449;51.676;5.812;2023-09-08T06:58:14;17.30;;;14.45;;
58250;SDS011;51449;51.676;5.812;2023-09-08T07:00:37;16.55;;;14.75;;
58250;SDS011;51449;51.676;5.812;2023-09-08T07:02:59;14.88;;;13.38;;
58250;SDS011;51449;51.676;5.812;2023-09-08T07:05:22;17.67;;;14.75;;
58250;SDS011;51449;51.676;5.812;2023-09-08T07:07:43;16.92;;;15.23;;
58250;SDS011;51449;51.676;5.812;2023-09-08T07:10:05;18.40;;;16.35;;
58250;SDS011;51449;51.676;5.812;2023-09-08T07:12:28;18.20;;;15.65;;
58250;SDS011;51449;51.676;5.812;2023-09-08T07:14:50;16.90;;;15.20;;
58250;SDS011;51449;51.676;5.812;2023-09-08T07:17:11;16.52;;;14.88;;
58250;SDS011;51449;51.676;5.812;2023-09-08T07:19:34;18.02;;;16.13;;
58250;SDS011;51449;51.676;5.812;2023-09-08T07:21:56;18.77;;;15.93;;
58250;SDS011;51449;51.676;5.812;2023-09-08T07:24:18;17.92;;;16.08;;
58250;SDS011;51449;51.676;5.812;2023-09-08T07:26:40;16.77;;;15.18;;
58250;SDS011;51449;51.676;5.812;2023-09-08T07:29:02;19.92;;;16.30;;
58250;SDS011;51449;51.676;5.812;2023-09-08T07:31:24;17.33;;;15.45;;
58250;SDS011;51449;51.676;5.812;2023-09-08T07:33:46;17.27;;;15.35;;
58250;SDS011;51449;51.676;5.812;2023-09-08T07:36:08;18.30;;;16.40;;
58250;SDS011;51449;51.676;5.812;2023-09-08T07:38:32;17.77;;;15.80;;
58250;SDS011;51449;51.676;5.812;2023-09-08T07:40:55;19.23;;;16.55;;
58250;SDS011;51449;51.676;5.812;2023-09-08T07:43:17;21.25;;;17.50;;
58250;SDS011;51449;51.676;5.812;2023-09-08T07:45:39;17.90;;;16.05;;
58250;SDS011;51449;51.676;5.812;2023-09-08T07:48:01;19.45;;;16.63;;
58250;SDS011;51449;51.676;5.812;2023-09-08T07:50:24;18.65;;;16.65;;
58250;SDS011;51449;51.676;5.812;2023-09-08T07:52:49;17.52;;;15.73;;
58250;SDS011;51449;51.676;5.812;2023-09-08T07:55:13;21.08;;;17.17;;
58250;SDS011;51449;51.676;5.812;2023-09-08T07:57:35;21.73;;;17.73;;
58250;SDS011;51449;51.676;5.812;2023-09-08T07:59:57;18.70;;;16.70;;
58250;SDS011;51449;51.676;5.812;2023-09-08T08:02:19;20.23;;;18.13;;
58250;SDS011;51449;51.676;5.812;2023-09-08T08:04:40;19.23;;;15.73;;
58250;SDS011;51449;51.676;5.812;2023-09-08T08:07:02;20.27;;;16.63;;
58250;SDS011;51449;51.676;5.812;2023-09-08T08:09:24;18.80;;;16.65;;
58250;SDS011;51449;51.676;5.812;2023-09-08T08:11:46;19.40;;;15.65;;
58250;SDS011;51449;51.676;5.812;2023-09-08T08:14:08;18.90;;;16.90;;
58250;SDS011;51449;51.676;5.812;2023-09-08T08:16:30;19.90;;;17.02;;
58250;SDS011;51449;51.676;5.812;2023-09-08T08:18:52;18.17;;;16.25;;
58250;SDS011;51449;51.676;5.812;2023-09-08T08:21:14;19.40;;;17.38;;
58250;SDS011;51449;51.676;5.812;2023-09-08T08:23:36;23.42;;;17.15;;
58250;SDS011;51449;51.676;5.812;2023-09-08T08:26:00;20.60;;;18.50;;
58250;SDS011;51449;51.676;5.812;2023-09-08T08:28:21;19.92;;;17.50;;
58250;SDS011;51449;51.676;5.812;2023-09-08T08:30:43;19.42;;;17.40;;
58250;SDS011;51449;51.676;5.812;2023-09-08T08:33:09;20.27;;;18.05;;
58250;SDS011;51449;51.676;5.812;2023-09-08T08:35:32;18.83;;;16.92;;
58250;SDS011;51449;51.676;5.812;2023-09-08T08:37:54;18.70;;;16.73;;
58250;SDS011;51449;51.676;5.812;2023-09-08T08:40:16;20.33;;;17.13;;
58250;SDS011;51449;51.676;5.812;2023-09-08T08:42:37;23.50;;;17.17;;
58250;SDS011;51449;51.676;5.812;2023-09-08T08:45:00;18.23;;;15.88;;
58250;SDS011;51449;51.676;5.812;2023-09-08T08:47:22;16.52;;;14.93;;
58250;SDS011;51449;51.676;5.812;2023-09-08T08:52:10;18.23;;;15.38;;
58250;SDS011;51449;51.676;5.812;2023-09-08T08:54:34;19.60;;;15.52;;
58250;SDS011;51449;51.676;5.812;2023-09-08T08:57:01;16.10;;;14.40;;
58250;SDS011;51449;51.676;5.812;2023-09-08T08:59:24;18.52;;;13.43;;
58250;SDS011;51449;51.676;5.812;2023-09-08T09:01:47;16.95;;;15.15;;
58250;SDS011;51449;51.676;5.812;2023-09-08T09:04:09;17.73;;;14.23;;
58250;SDS011;51449;51.676;5.812;2023-09-08T09:06:33;16.83;;;15.02;;
58250;SDS011;51449;51.676;5.812;2023-09-08T09:08:55;16.30;;;14.55;;
58250;SDS011;51449;51.676;5.812;2023-09-08T09:11:18;16.20;;;13.80;;
58250;SDS011;51449;51.676;5.812;2023-09-08T09:13:40;15.73;;;13.57;;
58250;SDS011;51449;51.676;5.812;2023-09-08T09:16:02;19.05;;;15.68;;
58250;SDS011;51449;51.676;5.812;2023-09-08T09:18:25;19.67;;;15.60;;
58250;SDS011;51449;51.676;5.812;2023-09-08T09:20:55;16.92;;;14.63;;
58250;SDS011;51449;51.676;5.812;2023-09-08T09:23:26;16.98;;;15.18;;
58250;SDS011;51449;51.676;5.812;2023-09-08T09:25:50;15.85;;;14.25;;
58250;SDS011;51449;51.676;5.812;2023-09-08T09:28:12;17.90;;;14.35;;
58250;SDS011;51449;51.676;5.812;2023-09-08T09:30:48;14.95;;;13.35;;
58250;SDS011;51449;51.676;5.812;2023-09-08T09:33:13;17.42;;;14.45;;
58250;SDS011;51449;51.676;5.812;2023-09-08T09:35:46;15.95;;;13.80;;
58250;SDS011;51449;51.676;5.812;2023-09-08T09:38:13;16.50;;;13.55;;
58250;SDS011;51449;51.676;5.812;2023-09-08T09:40:37;15.17;;;13.53;;
58250;SDS011;51449;51.676;5.812;2023-09-08T09:42:59;14.45;;;12.93;;
58250;SDS011;51449;51.676;5.812;2023-09-08T09:45:21;15.15;;;13.32;;
58250;SDS011;51449;51.676;5.812;2023-09-08T09:47:47;14.85;;;12.95;;
58250;SDS011;51449;51.676;5.812;2023-09-08T09:50:08;13.23;;;11.82;;
58250;SDS011;51449;51.676;5.812;2023-09-08T09:52:30;13.90;;;12.38;;
58250;SDS011;51449;51.676;5.812;2023-09-08T09:54:53;13.68;;;12.27;;
58250;SDS011;51449;51.676;5.812;2023-09-08T09:57:16;14.77;;;12.95;;
58250;SDS011;51449;51.676;5.812;2023-09-08T09:59:41;15.00;;;12.90;;
58250;SDS011;51449;51.676;5.812;2023-09-08T10:02:03;13.73;;;11.65;;
58250;SDS011;51449;51.676;5.812;2023-09-08T10:04:25;13.30;;;11.93;;
58250;SDS011;51449;51.676;5.812;2023-09-08T10:06:49;12.88;;;11.57;;
58250;SDS011;51449;51.676;5.812;2023-09-08T10:09:13;13.30;;;10.90;;
58250;SDS011;51449;51.676;5.812;2023-09-08T10:11:47;10.50;;;9.45;;
58250;SDS011;51449;51.676;5.812;2023-09-08T10:14:11;10.40;;;9.40;;
58250;SDS011;51449;51.676;5.812;2023-09-08T10:16:36;12.38;;;9.77;;
58250;SDS011;51449;51.676;5.812;2023-09-08T10:19:02;10.40;;;9.40;;
58250;SDS011;51449;51.676;5.812;2023-09-08T10:21:30;11.20;;;9.18;;
58250;SDS011;51449;51.676;5.812;2023-09-08T10:23:59;11.40;;;9.43;;
58250;SDS011;51449;51.676;5.812;2023-09-08T10:26:30;11.25;;;9.35;;
58250;SDS011;51449;51.676;5.812;2023-09-08T10:28:56;12.98;;;11.75;;
58250;SDS011;51449;51.676;5.812;2023-09-08T10:31:18;12.05;;;10.90;;
58250;SDS011;51449;51.676;5.812;2023-09-08T10:33:40;11.07;;;9.70;;
58250;SDS011;51449;51.676;5.812;2023-09-08T10:36:04;11.13;;;9.75;;
58250;SDS011;51449;51.676;5.812;2023-09-08T10:38:32;9.98;;;9.07;;
58250;SDS011;51449;51.676;5.812;2023-09-08T10:43:42;11.95;;;10.32;;
58250;SDS011;51449;51.676;5.812;2023-09-08T10:46:08;12.05;;;10.95;;
58250;SDS011;51449;51.676;5.812;2023-09-08T10:48:39;12.25;;;11.05;;
58250;SDS011;51449;51.676;5.812;2023-09-08T10:51:04;12.20;;;11.02;;
58250;SDS011;51449;51.676;5.812;2023-09-08T10:53:26;11.27;;;10.05;;
58250;SDS011;51449;51.676;5.812;2023-09-08T10:55:48;10.73;;;9.68;;
58250;SDS011;51449;51.676;5.812;2023-09-08T10:58:34;12.98;;;11.63;;
58250;SDS011;51449;51.676;5.812;2023-09-08T11:01:00;11.45;;;10.38;;
58250;SDS011;51449;51.676;5.812;2023-09-08T11:03:26;12.05;;;10.00;;
58250;SDS011;51449;51.676;5.812;2023-09-08T11:06:04;11.43;;;10.32;;
58250;SDS011;51449;51.676;5.812;2023-09-08T11:08:27;11.02;;;9.93;;
58250;SDS011;51449;51.676;5.812;2023-09-08T11:10:50;10.65;;;8.50;;
58250;SDS011;51449;51.676;5.812;2023-09-08T11:13:12;10.45;;;9.45;;
58250;SDS011;51449;51.676;5.812;2023-09-08T11:15:34;10.52;;;8.98;;
58250;SDS011;51449;51.676;5.812;2023-09-08T11:17:55;11.32;;;9.63;;
58250;SDS011;51449;51.676;5.812;2023-09-08T11:20:25;9.82;;;8.70;;
58250;SDS011;51449;51.676;5.812;2023-09-08T11:22:49;12.43;;;9.30;;
58250;SDS011;51449;51.676;5.812;2023-09-08T11:25:11;9.55;;;8.65;;
58250;SDS011;51449;51.676;5.812;2023-09-08T11:27:33;9.23;;;8.40;;
58250;SDS011;51449;51.676;5.812;2023-09-08T11:29:55;9.43;;;8.55;;
58250;SDS011;51449;51.676;5.812;2023-09-08T11:32:18;9.73;;;8.77;;
58250;SDS011;51449;51.676;5.812;2023-09-08T11:34:40;9.07;;;8.07;;
58250;SDS011;51449;51.676;5.812;2023-09-08T11:37:12;10.32;;;9.27;;
58250;SDS011;51449;51.676;5.812;2023-09-08T11:39:37;8.38;;;7.57;;
58250;SDS011;51449;51.676;5.812;2023-09-08T11:42:03;9.10;;;8.30;;
58250;SDS011;51449;51.676;5.812;2023-09-08T11:44:26;8.02;;;7.35;;
58250;SDS011;51449;51.676;5.812;2023-09-08T11:46:48;7.53;;;6.78;;
58250;SDS011;51449;51.676;5.812;2023-09-08T11:49:10;10.43;;;6.45;;
58250;SDS011;51449;51.676;5.812;2023-09-08T11:51:32;7.07;;;6.38;;
58250;SDS011;51449;51.676;5.812;2023-09-08T11:53:54;7.32;;;6.63;;
58250;SDS011;51449;51.676;5.812;2023-09-08T11:56:16;7.85;;;6.95;;
58250;SDS011;51449;51.676;5.812;2023-09-08T11:58:38;7.05;;;6.35;;
58250;SDS011;51449;51.676;5.812;2023-09-08T12:01:00;7.15;;;6.50;;
58250;SDS011;51449;51.676;5.812;2023-09-08T12:03:24;7.70;;;6.60;;
58250;SDS011;51449;51.676;5.812;2023-09-08T12:05:50;6.68;;;6.05;;
58250;SDS011;51449;51.676;5.812;2023-09-08T12:08:13;9.25;;;6.18;;
58250;SDS011;51449;51.676;5.812;2023-09-08T12:10:39;7.18;;;6.57;;
58250;SDS011;51449;51.676;5.812;2023-09-08T12:13:02;7.15;;;6.55;;
58250;SDS011;51449;51.676;5.812;2023-09-08T12:15:37;8.82;;;6.63;;
58250;SDS011;51449;51.676;5.812;2023-09-08T12:18:01;9.13;;;6.78;;
58250;SDS011;51449;51.676;5.812;2023-09-08T12:20:25;7.40;;;6.80;;
58250;SDS011;51449;51.676;5.812;2023-09-08T12:22:48;9.52;;;7.35;;
58250;SDS011;51449;51.676;5.812;2023-09-08T12:25:11;8.40;;;7.60;;
58250;SDS011;51449;51.676;5.812;2023-09-08T12:27:35;7.68;;;6.88;;
58250;SDS011;51449;51.676;5.812;2023-09-08T12:29:59;8.32;;;7.53;;
58250;SDS011;51449;51.676;5.812;2023-09-08T12:32:23;6.97;;;6.38;;
58250;SDS011;51449;51.676;5.812;2023-09-08T12:34:46;7.10;;;6.40;;
58250;SDS011;51449;51.676;5.812;2023-09-08T12:37:08;6.82;;;6.07;;
58250;SDS011;51449;51.676;5.812;2023-09-08T12:39:32;7.78;;;6.68;;
58250;SDS011;51449;51.676;5.812;2023-09-08T12:41:54;7.38;;;6.60;;
58250;SDS011;51449;51.676;5.812;2023-09-08T12:44:16;7.93;;;7.00;;
58250;SDS011;51449;51.676;5.812;2023-09-08T12:46:38;6.63;;;6.03;;
58250;SDS011;51449;51.676;5.812;2023-09-08T12:48:59;7.03;;;6.18;;
58250;SDS011;51449;51.676;5.812;2023-09-08T12:51:21;9.52;;;6.53;;
58250;SDS011;51449;51.676;5.812;2023-09-08T12:53:43;6.90;;;6.20;;
58250;SDS011;51449;51.676;5.812;2023-09-08T12:56:05;6.72;;;6.03;;
58250;SDS011;51449;51.676;5.812;2023-09-08T12:58:26;5.75;;;5.10;;
58250;SDS011;51449;51.676;5.812;2023-09-08T13:00:49;6.72;;;5.80;;
58250;SDS011;51449;51.676;5.812;2023-09-08T13:03:11;6.25;;;5.68;;
58250;SDS011;51449;51.676;5.812;2023-09-08T13:05:33;8.23;;;5.45;;
58250;SDS011;51449;51.676;5.812;2023-09-08T13:07:55;6.50;;;5.90;;
58250;SDS011;51449;51.676;5.812;2023-09-08T13:10:17;6.15;;;5.55;;
58250;SDS011;51449;51.676;5.812;2023-09-08T13:12:39;6.00;;;5.50;;
58250;SDS011;51449;51.676;5.812;2023-09-08T13:15:02;6.00;;;5.60;;
58250;SDS011;51449;51.676;5.812;2023-09-08T13:17:25;6.18;;;5.57;;
58250;SDS011;51449;51.676;5.812;2023-09-08T13:19:46;6.15;;;5.53;;
58250;SDS011;51449;51.676;5.812;2023-09-08T13:22:09;6.50;;;5.80;;
58250;SDS011;51449;51.676;5.812;2023-09-08T13:24:30;6.53;;;5.93;;
58250;SDS011;51449;51.676;5.812;2023-09-08T13:26:52;6.20;;;5.65;;
58250;SDS011;51449;51.676;5.812;2023-09-08T13:29:15;6.40;;;5.80;;
58250;SDS011;51449;51.676;5.812;2023-09-08T13:31:38;5.75;;;5.35;;
58250;SDS011;51449;51.676;5.812;2023-09-08T13:33:59;6.38;;;5.78;;
58250;SDS011;51449;51.676;5.812;2023-09-08T13:36:21;6.35;;;5.75;;
58250;SDS011;51449;51.676;5.812;2023-09-08T13:38:43;6.15;;;5.75;;
58250;SDS011;51449;51.676;5.812;2023-09-08T13:41:05;6.60;;;5.88;;
58250;SDS011;51449;51.676;5.812;2023-09-08T13:43:26;6.47;;;5.88;;
58250;SDS011;51449;51.676;5.812;2023-09-08T13:45:49;6.18;;;5.65;;
58250;SDS011;51449;51.676;5.812;2023-09-08T13:48:10;6.40;;;5.90;;
58250;SDS011;51449;51.676;5.812;2023-09-08T13:50:33;6.35;;;5.85;;
58250;SDS011;51449;51.676;5.812;2023-09-08T13:52:57;5.55;;;5.15;;
58250;SDS011;51449;51.676;5.812;2023-09-08T13:55:20;6.10;;;5.60;;
58250;SDS011;51449;51.676;5.812;2023-09-08T13:57:58;6.32;;;5.82;;
58250;SDS011;51449;51.676;5.812;2023-09-08T14:00:23;6.97;;;6.38;;
58250;SDS011;51449;51.676;5.812;2023-09-08T14:02:46;7.18;;;6.13;;
58250;SDS011;51449;51.676;5.812;2023-09-08T14:05:12;6.78;;;5.70;;
58250;SDS011;51449;51.676;5.812;2023-09-08T14:07:39;6.70;;;6.03;;
58250;SDS011;51449;51.676;5.812;2023-09-08T14:10:04;6.68;;;6.00;;
58250;SDS011;51449;51.676;5.812;2023-09-08T14:12:31;6.47;;;5.88;;
58250;SDS011;51449;51.676;5.812;2023-09-08T14:14:56;6.72;;;6.10;;